createdAt,value
2024-03-09T00:00:42.040Z,44.67
2024-03-09T00:03:09.807Z,45.67
2024-03-09T00:05:37.309Z,36.03
2024-03-09T00:08:06.350Z,34.00
2024-03-09T00:10:33.686Z,34.10
2024-03-09T00:13:01.043Z,41.85
2024-03-09T00:15:29.758Z,31.45
2024-03-09T00:17:57.919Z,34.65
2024-03-09T00:20:29.386Z,31.27
2024-03-09T00:22:59.163Z,34.22
2024-03-09T00:25:30.577Z,34.65
2024-03-09T00:27:58.915Z,30.23
2024-03-09T00:30:31.357Z,31.02
2024-03-09T00:33:00.787Z,35.75
2024-03-09T00:35:31.819Z,32.17
2024-03-09T00:38:00.551Z,36.15
2024-03-09T00:40:31.495Z,30.27
2024-03-09T00:43:00.573Z,40.75
2024-03-09T00:45:28.041Z,35.20
2024-03-09T00:47:55.440Z,33.67
2024-03-09T00:50:23.171Z,35.83
2024-03-09T00:52:50.726Z,37.15
2024-03-09T00:55:18.065Z,33.83
2024-03-09T00:57:46.595Z,32.78
2024-03-09T01:00:17.831Z,43.20
2024-03-09T01:02:48.674Z,37.25
2024-03-09T01:05:28.226Z,33.72
2024-03-09T01:07:56.154Z,35.53
2024-03-09T01:10:23.464Z,40.42
2024-03-09T01:12:51.235Z,39.17
2024-03-09T01:15:20.302Z,42.50
2024-03-09T01:17:47.639Z,39.40
2024-03-09T01:20:15.898Z,39.42
2024-03-09T01:22:46.425Z,42.17
2024-03-09T01:25:14.451Z,39.95
2024-03-09T01:27:42.098Z,37.40
2024-03-09T01:30:10.703Z,34.47
2024-03-09T01:32:42.032Z,37.60
2024-03-09T01:35:10.814Z,38.97
2024-03-09T01:37:38.632Z,35.25
2024-03-09T01:40:07.884Z,33.85
2024-03-09T01:42:35.335Z,33.70
2024-03-09T01:45:07.068Z,32.58
2024-03-09T01:47:35.278Z,31.30
2024-03-09T01:50:02.773Z,30.65
2024-03-09T01:52:34.510Z,30.00
2024-03-09T01:55:05.580Z,30.88
2024-03-09T01:57:34.377Z,30.88
2024-03-09T02:00:01.894Z,31.63
2024-03-09T02:02:34.116Z,32.20
2024-03-09T02:05:04.785Z,31.35
2024-03-09T02:07:34.737Z,32.75
2024-03-09T02:10:02.043Z,36.53
2024-03-09T02:12:29.465Z,32.70
2024-03-09T02:14:56.641Z,32.30
2024-03-09T02:17:25.623Z,33.45
2024-03-09T02:19:53.326Z,30.73
2024-03-09T02:22:20.652Z,29.58
2024-03-09T02:24:53.810Z,30.95
2024-03-09T02:27:22.174Z,31.40
2024-03-09T02:29:49.349Z,30.30
2024-03-09T02:32:17.259Z,33.35
2024-03-09T02:34:44.519Z,27.95
2024-03-09T02:37:11.638Z,32.28
2024-03-09T02:39:38.927Z,29.95
2024-03-09T02:42:06.277Z,26.30
2024-03-09T02:44:33.559Z,29.30
2024-03-09T02:47:00.773Z,35.28
2024-03-09T02:49:28.233Z,31.83
2024-03-09T02:51:55.540Z,31.05
2024-03-09T02:54:24.445Z,33.33
2024-03-09T02:56:51.728Z,29.52
2024-03-09T02:59:19.785Z,36.53
2024-03-09T03:01:49.886Z,35.88
2024-03-09T03:04:17.142Z,37.90
2024-03-09T03:06:45.164Z,34.25
2024-03-09T03:09:13.509Z,35.85
2024-03-09T03:11:44.142Z,39.13
2024-03-09T03:14:12.042Z,33.00
2024-03-09T03:16:39.896Z,33.30
2024-03-09T03:19:08.019Z,40.38
2024-03-09T03:21:35.748Z,35.83
2024-03-09T03:24:03.621Z,32.92
2024-03-09T03:26:33.728Z,35.33
2024-03-09T03:29:03.142Z,35.25
2024-03-09T03:31:31.004Z,41.25
2024-03-09T03:33:58.439Z,34.47
2024-03-09T03:36:25.910Z,31.65
2024-03-09T03:38:53.173Z,36.88
2024-03-09T03:41:23.730Z,33.80
2024-03-09T03:43:51.868Z,34.00
2024-03-09T03:46:19.387Z,39.10
2024-03-09T03:48:47.581Z,42.30
2024-03-09T03:51:15.954Z,42.60
2024-03-09T03:53:44.402Z,43.92
2024-03-09T03:56:13.546Z,42.45
2024-03-09T03:58:43.299Z,47.40
2024-03-09T04:01:11.185Z,49.03
2024-03-09T04:03:39.300Z,40.38
2024-03-09T04:06:07.616Z,50.28
2024-03-09T04:08:35.288Z,52.47
2024-03-09T04:11:04.434Z,55.45
2024-03-09T04:13:32.252Z,57.10
2024-03-09T04:15:59.911Z,57.88
2024-03-09T04:18:35.005Z,59.50
2024-03-09T04:21:03.790Z,60.65
2024-03-09T04:23:31.456Z,60.25
2024-03-09T04:25:58.741Z,60.70
2024-03-09T04:28:29.525Z,62.30
2024-03-09T04:30:58.251Z,52.63
2024-03-09T04:33:26.358Z,68.65
2024-03-09T04:35:54.829Z,54.10
2024-03-09T04:38:22.381Z,54.03
2024-03-09T04:40:52.740Z,63.55
2024-03-09T04:43:20.308Z,62.30
2024-03-09T04:45:47.847Z,65.13
2024-03-09T04:48:15.826Z,66.15
2024-03-09T04:50:48.849Z,69.10
2024-03-09T04:53:18.479Z,61.92
2024-03-09T04:55:49.894Z,60.75
2024-03-09T04:58:19.395Z,70.85
2024-03-09T05:00:46.894Z,65.65
2024-03-09T05:03:14.598Z,59.75
2024-03-09T05:05:42.393Z,65.70
2024-03-09T05:08:10.050Z,59.60
2024-03-09T05:10:40.311Z,65.93
2024-03-09T05:13:09.148Z,61.30
2024-03-09T05:15:37.517Z,59.97
2024-03-09T05:18:09.868Z,64.40
2024-03-09T05:20:38.346Z,63.60
2024-03-09T05:23:11.907Z,71.72
2024-03-09T05:25:42.847Z,75.20
2024-03-09T05:28:15.849Z,71.80
2024-03-09T05:30:45.302Z,64.00
2024-03-09T05:33:13.609Z,76.93
2024-03-09T05:35:41.438Z,72.45
2024-03-09T05:38:10.645Z,66.43
2024-03-09T05:40:38.953Z,70.32
2024-03-09T05:43:09.415Z,60.10
2024-03-09T05:45:37.606Z,58.58
2024-03-09T05:48:05.288Z,69.65
2024-03-09T05:50:33.604Z,68.05
2024-03-09T05:53:02.033Z,65.90
2024-03-09T05:55:29.994Z,63.00
2024-03-09T05:57:57.881Z,69.40
2024-03-09T06:00:30.889Z,58.17
2024-03-09T06:02:59.613Z,66.13
2024-03-09T06:05:31.102Z,49.83
2024-03-09T06:07:59.082Z,57.42
2024-03-09T06:10:27.391Z,61.83
2024-03-09T06:12:54.974Z,55.25
2024-03-09T06:15:26.543Z,60.90
2024-03-09T06:17:57.622Z,61.17
2024-03-09T06:20:28.848Z,63.67
2024-03-09T06:22:58.165Z,61.63
2024-03-09T06:25:27.617Z,63.20
2024-03-09T06:27:55.889Z,58.60
2024-03-09T06:30:29.722Z,73.60
2024-03-09T06:33:00.475Z,57.13
2024-03-09T06:35:28.284Z,58.70
2024-03-09T06:38:02.694Z,47.28
2024-03-09T06:40:32.630Z,50.28
2024-03-09T06:43:00.945Z,50.22
2024-03-09T06:45:28.855Z,49.45
2024-03-09T06:47:59.347Z,54.38
2024-03-09T06:50:31.047Z,45.83
2024-03-09T06:53:00.151Z,50.78
2024-03-09T06:55:31.222Z,52.65
2024-03-09T06:58:03.744Z,47.88
2024-03-09T07:00:33.989Z,44.65
2024-03-09T07:03:01.217Z,40.22
2024-03-09T07:05:32.313Z,40.75
2024-03-09T07:08:01.114Z,43.03
2024-03-09T07:10:29.127Z,44.58
2024-03-09T07:12:56.849Z,53.15
2024-03-09T07:15:26.568Z,39.92
2024-03-09T07:17:57.199Z,39.92
2024-03-09T07:20:25.127Z,40.25
2024-03-09T07:22:52.968Z,39.67
2024-03-09T07:25:25.571Z,41.40
2024-03-09T07:27:57.826Z,38.88
2024-03-09T07:30:25.775Z,37.22
2024-03-09T07:32:56.107Z,37.67
2024-03-09T07:35:29.272Z,39.70
2024-03-09T07:38:00.585Z,37.58
2024-03-09T07:40:31.687Z,35.72
2024-03-09T07:42:59.210Z,34.03
2024-03-09T07:45:28.181Z,42.15
2024-03-09T07:47:55.951Z,33.13
2024-03-09T07:50:24.194Z,31.10
2024-03-09T07:52:56.108Z,37.00
2024-03-09T07:55:25.162Z,38.38
2024-03-09T07:58:05.242Z,34.50
2024-03-09T08:00:41.574Z,34.92
2024-03-09T08:03:08.829Z,36.03
2024-03-09T08:05:36.041Z,41.45
2024-03-09T08:08:05.156Z,36.15
2024-03-09T08:10:35.464Z,35.65
2024-03-09T08:13:02.873Z,36.15
2024-03-09T08:15:30.718Z,40.65
2024-03-09T08:17:58.380Z,42.58
2024-03-09T08:20:25.960Z,41.15
2024-03-09T08:22:55.866Z,43.80
2024-03-09T08:25:28.888Z,39.08
2024-03-09T08:27:56.829Z,27.13
2024-03-09T08:30:25.300Z,33.13
2024-03-09T08:33:00.376Z,32.03
2024-03-09T08:35:34.865Z,36.30
2024-03-09T08:40:33.227Z,30.42
2024-03-09T08:43:01.179Z,34.25
2024-03-09T08:45:34.089Z,30.73
2024-03-09T08:48:01.353Z,34.60
2024-03-09T08:50:28.712Z,31.05
2024-03-09T08:52:57.435Z,34.28
2024-03-09T08:55:25.156Z,33.03
2024-03-09T08:57:52.635Z,33.03
2024-03-09T09:00:26.873Z,37.80
2024-03-09T09:02:58.001Z,31.13
2024-03-09T09:05:29.170Z,31.45
2024-03-09T09:07:57.608Z,31.30
2024-03-09T09:10:27.164Z,32.72
2024-03-09T09:12:56.052Z,29.10
2024-03-09T09:15:26.811Z,29.45
2024-03-09T09:17:56.949Z,27.33
2024-03-09T09:20:25.736Z,32.95
2024-03-09T09:22:55.545Z,30.00
2024-03-09T09:25:30.999Z,29.13
2024-03-09T09:28:02.977Z,35.83
2024-03-09T09:30:31.513Z,35.15
2024-03-09T09:32:59.487Z,29.20
2024-03-09T09:35:27.358Z,30.67
2024-03-09T09:37:55.018Z,29.58
2024-03-09T09:40:22.531Z,30.25
2024-03-09T09:42:49.880Z,28.83
2024-03-09T09:45:23.216Z,31.75
2024-03-09T09:47:50.913Z,25.93
2024-03-09T09:50:21.065Z,28.42
2024-03-09T09:52:52.710Z,28.77
2024-03-09T09:55:23.276Z,27.80
2024-03-09T09:57:53.923Z,26.63
2024-03-09T10:00:25.249Z,22.95
2024-03-09T10:02:59.089Z,27.25
2024-03-09T10:05:30.299Z,22.73
2024-03-09T10:08:06.111Z,25.88
2024-03-09T10:10:36.996Z,23.40
2024-03-09T10:13:15.092Z,21.27
2024-03-09T10:15:44.674Z,24.55
2024-03-09T10:18:13.201Z,26.17
2024-03-09T10:20:41.832Z,25.77
2024-03-09T10:23:13.286Z,26.70
2024-03-09T10:25:41.655Z,24.27
2024-03-09T10:28:10.118Z,23.38
2024-03-09T10:30:41.991Z,27.70
2024-03-09T10:33:13.598Z,25.73
2024-03-09T10:35:48.147Z,25.35
2024-03-09T10:38:16.071Z,25.92
2024-03-09T10:40:43.746Z,22.38
2024-03-09T10:43:12.750Z,23.67
2024-03-09T10:45:41.629Z,23.23
2024-03-09T10:48:11.242Z,21.42
2024-03-09T10:50:42.225Z,21.25
2024-03-09T10:53:10.447Z,22.85
2024-03-09T10:55:57.358Z,20.17
2024-03-09T10:58:26.314Z,22.33
2024-03-09T11:00:54.347Z,23.63
2024-03-09T11:03:25.158Z,23.10
2024-03-09T11:05:56.653Z,27.40
2024-03-09T11:08:24.967Z,25.83
2024-03-09T11:10:52.722Z,24.63
2024-03-09T11:13:20.254Z,24.83
2024-03-09T11:15:52.713Z,22.92
2024-03-09T11:18:23.528Z,24.88
2024-03-09T11:21:00.808Z,21.20
2024-03-09T11:23:36.269Z,27.10
2024-03-09T11:26:04.419Z,24.65
2024-03-09T11:28:44.538Z,25.70
2024-03-09T11:31:12.826Z,25.00
2024-03-09T11:33:58.739Z,23.27
2024-03-09T11:36:51.904Z,22.85
2024-03-09T11:39:23.801Z,22.98
2024-03-09T11:41:51.960Z,21.75
2024-03-09T11:44:21.946Z,23.60
2024-03-09T11:46:50.335Z,22.45
2024-03-09T11:49:18.021Z,18.35
2024-03-09T11:51:46.783Z,19.40
2024-03-09T11:54:15.727Z,17.98
2024-03-09T11:56:43.254Z,24.83
2024-03-09T11:59:12.419Z,19.85
2024-03-09T12:01:43.125Z,19.48
2024-03-09T12:04:11.712Z,16.33
2024-03-09T12:06:41.899Z,19.40
2024-03-09T12:09:12.669Z,17.17
2024-03-09T12:11:43.709Z,18.65
2024-03-09T12:14:11.183Z,19.75
2024-03-09T12:16:38.968Z,20.77
2024-03-09T12:19:07.662Z,17.90
2024-03-09T12:21:38.465Z,22.02
2024-03-09T12:24:07.945Z,21.10
2024-03-09T12:26:35.318Z,18.88
2024-03-09T12:29:07.238Z,16.73
2024-03-09T12:31:35.616Z,16.75
2024-03-09T12:34:06.628Z,15.65
2024-03-09T12:36:35.249Z,16.15
2024-03-09T12:39:11.068Z,18.02
2024-03-09T12:41:39.182Z,17.05
2024-03-09T12:44:07.830Z,19.17
2024-03-09T12:46:35.886Z,16.10
2024-03-09T12:49:09.821Z,14.02
2024-03-09T12:51:38.640Z,14.05
2024-03-09T12:54:09.636Z,18.40
2024-03-09T12:56:37.620Z,14.23
2024-03-09T12:59:05.939Z,14.63
2024-03-09T13:01:34.151Z,12.68
2024-03-09T13:04:09.042Z,12.73
2024-03-09T13:06:37.647Z,14.57
2024-03-09T13:09:05.153Z,12.23
2024-03-09T13:11:34.075Z,11.07
2024-03-09T13:14:02.245Z,13.57
2024-03-09T13:16:29.866Z,13.20
2024-03-09T13:18:57.091Z,13.63
2024-03-09T13:21:24.707Z,14.60
2024-03-09T13:23:57.419Z,12.38
2024-03-09T13:26:25.383Z,17.50
2024-03-09T13:28:54.285Z,11.27
2024-03-09T13:31:24.409Z,14.63
2024-03-09T13:33:51.820Z,12.07
2024-03-09T13:36:23.898Z,15.32
2024-03-09T13:38:51.897Z,10.45
2024-03-09T13:41:20.489Z,16.00
2024-03-09T13:43:48.002Z,13.63
2024-03-09T13:46:15.387Z,10.43
2024-03-09T13:48:44.342Z,14.25
2024-03-09T13:51:15.195Z,15.60
2024-03-09T13:53:44.106Z,13.35
2024-03-09T13:56:21.106Z,15.63
2024-03-09T13:58:49.481Z,14.25
2024-03-09T14:01:21.198Z,15.73
2024-03-09T14:03:49.178Z,13.45
2024-03-09T14:06:19.321Z,16.17
2024-03-09T14:08:47.134Z,17.52
2024-03-09T14:11:18.712Z,10.65
2024-03-09T14:13:49.409Z,9.95
2024-03-09T14:16:22.296Z,10.40
2024-03-09T14:18:52.210Z,10.02
2024-03-09T14:21:25.183Z,9.50
2024-03-09T14:23:58.969Z,11.77
2024-03-09T14:26:26.757Z,9.23
2024-03-09T14:28:59.890Z,11.57
2024-03-09T14:31:35.964Z,11.32
2024-03-09T14:34:04.437Z,13.70
2024-03-09T14:36:34.571Z,11.48
2024-03-09T14:39:02.212Z,14.20
2024-03-09T14:41:29.965Z,8.80
2024-03-09T14:43:57.628Z,12.38
2024-03-09T14:46:25.137Z,8.68
2024-03-09T14:48:55.003Z,11.13
2024-03-09T14:51:23.888Z,12.35
2024-03-09T14:53:51.583Z,12.25
2024-03-09T14:56:19.205Z,19.70
2024-03-09T14:58:47.758Z,10.65
2024-03-09T15:01:27.742Z,13.65
2024-03-09T15:03:56.079Z,10.10
2024-03-09T15:06:24.477Z,9.55
2024-03-09T15:08:59.803Z,11.20
2024-03-09T15:11:27.791Z,11.15
2024-03-09T15:13:58.337Z,12.80
2024-03-09T15:16:28.870Z,11.38
2024-03-09T15:18:56.977Z,13.07
2024-03-09T15:21:27.737Z,12.90
2024-03-09T15:23:56.892Z,15.57
2024-03-09T15:26:28.655Z,13.02
2024-03-09T15:28:59.300Z,13.13
2024-03-09T15:31:28.507Z,12.98
2024-03-09T15:33:57.044Z,12.15
2024-03-09T15:36:25.690Z,15.65
2024-03-09T15:38:54.754Z,18.23
2024-03-09T15:41:22.198Z,17.10
2024-03-09T15:43:51.318Z,13.38
2024-03-09T15:46:20.377Z,15.23
2024-03-09T15:48:49.362Z,15.90
2024-03-09T15:51:19.684Z,12.02
2024-03-09T15:53:47.770Z,14.80
2024-03-09T15:56:21.618Z,20.27
2024-03-09T16:01:23.449Z,17.40
2024-03-09T16:06:18.767Z,29.33
2024-03-09T16:08:46.206Z,16.27
2024-03-09T16:11:13.638Z,26.00
2024-03-09T16:13:41.127Z,26.80
2024-03-09T16:16:08.963Z,28.13
2024-03-09T16:18:36.735Z,24.95
2024-03-09T16:21:10.662Z,25.27
2024-03-09T16:23:38.784Z,21.17
2024-03-09T16:26:07.934Z,23.25
2024-03-09T16:28:38.281Z,20.50
2024-03-09T16:31:06.365Z,21.52
2024-03-09T16:33:34.401Z,21.23
2024-03-09T16:36:03.756Z,21.23
2024-03-09T16:38:31.714Z,18.70
2024-03-09T16:41:03.104Z,27.05
2024-03-09T16:43:36.102Z,22.88
2024-03-09T16:46:07.865Z,24.95
2024-03-09T16:48:37.161Z,23.10
2024-03-09T16:51:08.801Z,24.38
2024-03-09T16:53:40.665Z,27.10
2024-03-09T16:56:10.342Z,30.95
2024-03-09T16:58:40.746Z,21.90
2024-03-09T17:01:08.579Z,24.50
2024-03-09T17:03:35.932Z,22.30
2024-03-09T17:06:08.937Z,26.95
2024-03-09T17:08:37.766Z,25.47
2024-03-09T17:11:11.926Z,28.05
2024-03-09T17:13:43.098Z,31.05
2024-03-09T17:16:12.311Z,31.67
2024-03-09T17:18:40.081Z,27.38
2024-03-09T17:21:07.749Z,31.95
2024-03-09T17:23:34.998Z,36.35
2024-03-09T17:26:02.363Z,41.08
2024-03-09T17:28:29.936Z,34.03
2024-03-09T17:30:57.860Z,44.75
2024-03-09T17:33:26.928Z,37.78
2024-03-09T17:35:54.485Z,38.47
2024-03-09T17:38:22.601Z,42.03
2024-03-09T17:40:50.327Z,40.00
2024-03-09T17:43:17.730Z,42.15
2024-03-09T17:45:46.972Z,45.92
2024-03-09T17:48:14.748Z,48.47
2024-03-09T17:50:43.454Z,47.20
2024-03-09T17:53:11.065Z,37.58
2024-03-09T17:55:38.633Z,36.42
2024-03-09T17:58:09.997Z,44.67
2024-03-09T18:00:40.204Z,39.22
2024-03-09T18:03:11.596Z,41.95
2024-03-09T18:05:39.442Z,39.90
2024-03-09T18:08:11.835Z,45.35
2024-03-09T18:10:41.741Z,44.50
2024-03-09T18:13:12.398Z,45.45
2024-03-09T18:15:46.910Z,44.47
2024-03-09T18:18:14.924Z,47.42
2024-03-09T18:20:43.418Z,43.78
2024-03-09T18:23:12.158Z,36.45
2024-03-09T18:25:41.263Z,44.80
2024-03-09T18:28:09.111Z,38.92
2024-03-09T18:30:37.494Z,44.42
2024-03-09T18:33:10.554Z,45.28
2024-03-09T18:35:39.128Z,46.63
2024-03-09T18:38:07.864Z,44.47
2024-03-09T18:40:35.650Z,39.03
2024-03-09T18:43:04.028Z,35.30
2024-03-09T18:45:34.588Z,35.05
2024-03-09T18:48:02.739Z,27.60
2024-03-09T18:50:30.703Z,43.53
2024-03-09T18:53:01.846Z,34.17
2024-03-09T18:55:31.039Z,31.67
2024-03-09T18:58:01.081Z,32.60
2024-03-09T19:00:32.499Z,24.70
2024-03-09T19:03:00.784Z,27.92
2024-03-09T19:05:28.776Z,25.70
2024-03-09T19:07:57.101Z,27.45
2024-03-09T19:10:24.714Z,21.60
2024-03-09T19:12:53.088Z,27.30
2024-03-09T19:15:21.098Z,21.40
2024-03-09T19:17:52.396Z,26.70
2024-03-09T19:20:34.914Z,24.08
2024-03-09T19:23:02.636Z,21.02
2024-03-09T19:25:31.785Z,22.73
2024-03-09T19:28:00.099Z,24.45
2024-03-09T19:30:30.282Z,22.02
2024-03-09T19:32:58.679Z,21.42
2024-03-09T19:35:27.883Z,22.38
2024-03-09T19:37:59.392Z,27.88
2024-03-09T19:40:28.057Z,23.25
2024-03-09T19:42:56.115Z,21.25
2024-03-09T19:45:24.179Z,24.42
2024-03-09T19:47:54.954Z,29.95
2024-03-09T19:50:22.789Z,17.60
2024-03-09T19:52:50.627Z,17.63
2024-03-09T19:55:20.525Z,18.15
2024-03-09T19:57:48.678Z,13.80
2024-03-09T20:00:20.284Z,16.98
2024-03-09T20:02:53.999Z,15.07
2024-03-09T20:05:26.463Z,12.85
2024-03-09T20:07:57.645Z,13.93
2024-03-09T20:10:26.060Z,12.88
2024-03-09T20:12:56.425Z,15.90
2024-03-09T20:15:26.616Z,13.52
2024-03-09T20:17:57.504Z,16.27
2024-03-09T20:20:26.186Z,13.88
2024-03-09T20:22:57.009Z,12.10
2024-03-09T20:25:24.767Z,11.77
2024-03-09T20:27:52.173Z,13.55
2024-03-09T20:30:21.217Z,13.30
2024-03-09T20:32:49.207Z,10.65
2024-03-09T20:35:17.246Z,13.07
2024-03-09T20:37:45.808Z,14.27
2024-03-09T20:40:17.049Z,12.40
2024-03-09T20:42:49.642Z,12.57
2024-03-09T20:45:18.609Z,13.32
2024-03-09T20:47:46.543Z,13.70
2024-03-09T20:50:18.061Z,12.98
2024-03-09T20:52:53.918Z,13.82
2024-03-09T20:55:22.055Z,17.55
2024-03-09T20:57:49.501Z,21.92
2024-03-09T21:00:24.184Z,15.43
2024-03-09T21:02:52.444Z,18.65
2024-03-09T21:05:20.124Z,20.77
2024-03-09T21:07:47.856Z,21.75
2024-03-09T21:10:15.440Z,22.77
2024-03-09T21:12:42.958Z,25.08
2024-03-09T21:15:10.858Z,30.58
2024-03-09T21:17:38.787Z,35.88
2024-03-09T21:20:13.194Z,29.85
2024-03-09T21:22:41.853Z,28.75
2024-03-09T21:25:13.336Z,33.15
2024-03-09T21:27:44.200Z,53.53
2024-03-09T21:30:15.827Z,58.67
2024-03-09T21:32:48.296Z,55.50
2024-03-09T21:35:17.474Z,59.72
2024-03-09T21:37:47.376Z,65.82
2024-03-09T21:40:15.587Z,65.78
2024-03-09T21:42:44.283Z,58.05
2024-03-09T21:45:12.757Z,51.63
2024-03-09T21:47:40.679Z,50.03
2024-03-09T21:50:12.876Z,63.40
2024-03-09T21:52:41.820Z,50.03
2024-03-09T21:55:11.429Z,58.28
2024-03-09T21:57:40.412Z,65.32
2024-03-09T22:00:27.274Z,71.82
2024-03-09T22:02:56.019Z,74.90
2024-03-09T22:05:26.490Z,96.15
2024-03-09T22:07:54.453Z,107.43
2024-03-09T22:10:22.271Z,124.40
2024-03-09T22:12:51.983Z,133.57
2024-03-09T22:15:19.292Z,127.85
2024-03-09T22:17:46.552Z,114.90
2024-03-09T22:20:14.569Z,115.60
2024-03-09T22:22:49.010Z,118.07
2024-03-09T22:27:44.674Z,122.05
2024-03-09T22:30:13.129Z,95.97
2024-03-09T22:32:41.775Z,60.65
2024-03-09T22:35:12.590Z,58.30
2024-03-09T22:37:40.413Z,56.60
2024-03-09T22:40:08.844Z,69.10
2024-03-09T22:42:39.767Z,49.05
2024-03-09T22:45:09.086Z,43.50
2024-03-09T22:47:37.148Z,56.70
2024-03-09T22:50:08.397Z,52.80
2024-03-09T22:52:35.817Z,49.60
2024-03-09T22:55:05.230Z,57.60
2024-03-09T22:57:32.896Z,41.10
2024-03-09T23:00:00.071Z,50.20
2024-03-09T23:02:27.413Z,69.35
2024-03-09T23:04:55.191Z,58.00
2024-03-09T23:07:22.835Z,44.50
2024-03-09T23:09:50.071Z,38.47
2024-03-09T23:12:19.271Z,42.72
2024-03-09T23:14:46.626Z,43.13
2024-03-09T23:17:13.864Z,40.47
2024-03-09T23:19:41.462Z,41.83
2024-03-09T23:22:08.759Z,38.85
2024-03-09T23:24:35.964Z,30.08
2024-03-09T23:27:03.308Z,35.92
2024-03-09T23:29:33.901Z,38.13
2024-03-09T23:32:01.610Z,37.33
2024-03-09T23:34:31.762Z,35.45
2024-03-09T23:36:59.077Z,38.47
2024-03-09T23:39:26.891Z,47.88
2024-03-09T23:41:56.317Z,88.30
2024-03-09T23:44:23.738Z,62.92
2024-03-09T23:46:51.724Z,59.67
2024-03-09T23:49:19.024Z,70.03
2024-03-09T23:51:46.292Z,74.80
2024-03-09T23:54:14.865Z,82.45
2024-03-09T23:56:43.456Z,73.00
2024-03-09T23:59:10.858Z,76.88
